createdAt,value
2023-01-19T00:02:12.294Z,90.60
2023-01-19T00:07:14.410Z,90.38
2023-01-19T00:12:15.980Z,90.44
2023-01-19T00:17:19.284Z,90.42
2023-01-19T00:22:20.844Z,90.27
2023-01-19T00:27:22.401Z,90.19
2023-01-19T00:32:23.893Z,90.24
2023-01-19T00:37:25.411Z,90.39
2023-01-19T00:42:44.778Z,90.24
2023-01-19T00:47:48.107Z,90.07
2023-01-19T00:52:49.958Z,90.00
2023-01-19T00:57:51.837Z,89.91
2023-01-19T01:02:54.408Z,89.96
2023-01-19T01:07:56.146Z,90.06
2023-01-19T01:12:59.082Z,90.34
2023-01-19T01:18:00.876Z,90.18
2023-01-19T01:23:03.669Z,90.46
2023-01-19T01:28:08.684Z,90.42
2023-01-19T01:33:11.895Z,90.38
2023-01-19T01:38:13.391Z,90.34
2023-01-19T01:43:18.066Z,90.49
2023-01-19T01:48:30.828Z,90.43
2023-01-19T01:53:34.794Z,90.33
2023-01-19T01:58:38.898Z,90.29
2023-01-19T02:03:40.563Z,90.30
2023-01-19T02:09:11.062Z,90.16
2023-01-19T02:14:12.547Z,89.98
2023-01-19T02:19:19.954Z,89.75
2023-01-19T02:24:21.890Z,89.45
2023-01-19T02:29:26.225Z,89.46
2023-01-19T02:34:28.275Z,89.70
2023-01-19T02:39:33.711Z,89.35
2023-01-19T02:44:37.535Z,89.44
2023-01-19T02:49:39.036Z,89.81
2023-01-19T02:54:58.618Z,89.87
2023-01-19T03:00:28.160Z,89.98
2023-01-19T03:05:41.842Z,89.75
2023-01-19T03:11:03.607Z,89.79
2023-01-19T03:16:07.368Z,89.62
2023-01-19T03:21:11.541Z,89.92
2023-01-19T03:26:19.727Z,89.62
2023-01-19T03:31:26.418Z,89.87
2023-01-19T03:36:50.758Z,89.79
2023-01-19T03:41:57.387Z,89.60
2023-01-19T03:47:00.364Z,89.64
2023-01-19T03:52:02.168Z,89.57
2023-01-19T03:57:03.853Z,89.65
2023-01-19T04:02:05.416Z,89.82
2023-01-19T04:07:07.001Z,89.64
2023-01-19T04:12:09.151Z,89.79
2023-01-19T04:17:11.145Z,89.88
2023-01-19T04:22:12.927Z,89.92
2023-01-19T04:27:16.665Z,89.84
2023-01-19T04:32:18.707Z,89.95
2023-01-19T04:37:20.261Z,89.94
2023-01-19T04:42:22.354Z,89.78
2023-01-19T04:47:23.860Z,89.71
2023-01-19T04:52:25.767Z,89.64
2023-01-19T04:57:27.422Z,89.90
2023-01-19T05:02:29.046Z,89.68
2023-01-19T05:07:31.058Z,89.92
2023-01-19T05:12:34.297Z,89.88
2023-01-19T05:17:36.605Z,90.07
2023-01-19T05:22:39.220Z,90.01
2023-01-19T05:27:41.157Z,90.21
2023-01-19T05:32:42.846Z,90.25
2023-01-19T05:37:44.549Z,89.98
2023-01-19T05:42:46.592Z,89.95
2023-01-19T05:47:48.363Z,90.27
2023-01-19T05:52:49.854Z,90.25
2023-01-19T05:57:51.914Z,90.65
2023-01-19T06:02:54.037Z,90.37
2023-01-19T06:07:57.611Z,90.38
2023-01-19T06:12:59.579Z,90.67
2023-01-19T06:18:01.339Z,90.30
2023-01-19T06:23:04.018Z,90.53
2023-01-19T06:28:05.689Z,90.34
2023-01-19T06:33:07.188Z,90.68
2023-01-19T06:38:08.681Z,90.74
2023-01-19T06:43:11.681Z,90.68
2023-01-19T06:48:13.196Z,90.66
2023-01-19T06:53:16.801Z,90.71
2023-01-19T06:58:18.328Z,90.62
2023-01-19T07:03:22.764Z,90.43
2023-01-19T07:08:24.375Z,90.20
2023-01-19T07:13:27.342Z,90.29
2023-01-19T07:18:29.307Z,90.31
2023-01-19T07:23:30.863Z,90.05
2023-01-19T07:28:33.002Z,90.07
2023-01-19T07:33:34.555Z,90.00
2023-01-19T07:38:36.095Z,89.65
2023-01-19T07:43:38.339Z,89.53
2023-01-19T07:48:39.903Z,89.61
2023-01-19T07:53:42.230Z,89.42
2023-01-19T07:58:44.286Z,89.16
2023-01-19T08:03:48.662Z,89.17
2023-01-19T08:08:50.712Z,89.32
2023-01-19T08:13:52.374Z,89.01
2023-01-19T08:18:53.882Z,88.85
2023-01-19T08:23:58.118Z,88.73
2023-01-19T08:29:02.680Z,88.45
2023-01-19T08:34:04.227Z,88.41
2023-01-19T08:39:06.266Z,88.26
2023-01-19T08:44:07.794Z,87.89
2023-01-19T08:49:09.913Z,88.01
2023-01-19T08:54:11.503Z,88.02
2023-01-19T08:59:14.170Z,87.64
2023-01-19T09:04:15.911Z,87.20
2023-01-19T09:09:17.707Z,86.73
2023-01-19T09:14:19.592Z,86.58
2023-01-19T09:19:21.602Z,86.88
2023-01-19T09:24:23.188Z,86.53
2023-01-19T09:29:24.660Z,86.51
2023-01-19T09:34:26.562Z,86.38
2023-01-19T09:39:28.190Z,86.49
2023-01-19T09:44:34.561Z,86.26
2023-01-19T09:49:41.509Z,85.84
2023-01-19T09:54:56.339Z,85.96
2023-01-19T09:59:59.609Z,85.60
2023-01-19T10:05:05.232Z,85.51
2023-01-19T10:10:32.617Z,85.61
2023-01-19T10:16:15.906Z,85.72
2023-01-19T10:21:28.308Z,85.44
2023-01-19T10:26:47.486Z,84.72
2023-01-19T10:31:53.075Z,84.38
2023-01-19T10:37:13.264Z,85.19
2023-01-19T10:42:17.332Z,85.08
2023-01-19T10:47:21.323Z,84.55
2023-01-19T10:52:34.307Z,84.76
2023-01-19T10:57:41.007Z,84.55
2023-01-19T11:02:50.811Z,84.68
2023-01-19T11:07:52.555Z,84.14
2023-01-19T11:13:03.621Z,84.61
2023-01-19T11:18:06.950Z,84.93
2023-01-19T11:23:29.669Z,84.70
2023-01-19T11:28:42.014Z,84.27
2023-01-19T11:33:53.810Z,84.83
2023-01-19T11:39:00.545Z,84.88
2023-01-19T11:44:20.745Z,84.32
2023-01-19T11:49:33.846Z,84.71
2023-01-19T12:00:17.550Z,85.05
2023-01-19T12:05:21.425Z,84.96
2023-01-19T12:10:28.375Z,84.71
2023-01-19T12:15:38.974Z,85.30
2023-01-19T12:20:46.339Z,85.17
2023-01-19T12:26:06.833Z,85.10
2023-01-19T12:31:09.242Z,85.31
2023-01-19T12:36:16.884Z,85.40
2023-01-19T12:41:38.715Z,85.75
2023-01-19T12:46:42.897Z,85.59
2023-01-19T12:51:45.808Z,85.79
2023-01-19T12:56:47.352Z,85.53
2023-01-19T13:02:20.015Z,85.66
2023-01-19T13:07:21.553Z,85.67
2023-01-19T13:12:25.269Z,85.52
2023-01-19T13:17:32.042Z,85.35
2023-01-19T13:22:51.751Z,85.39
2023-01-19T13:27:54.018Z,85.67
2023-01-19T13:33:06.425Z,85.47
2023-01-19T13:38:14.180Z,85.41
2023-01-19T13:43:21.230Z,85.64
2023-01-19T13:48:24.807Z,85.95
2023-01-19T13:53:26.496Z,86.23
2023-01-19T13:58:29.288Z,86.35
2023-01-19T14:03:31.063Z,86.42
2023-01-19T14:08:33.867Z,86.49
2023-01-19T14:13:43.251Z,86.35
2023-01-19T14:18:45.049Z,86.46
2023-01-19T14:23:51.601Z,86.20
2023-01-19T14:28:53.326Z,86.28
2023-01-19T14:33:56.365Z,86.46
2023-01-19T14:39:01.594Z,86.48
2023-01-19T14:44:10.398Z,86.37
2023-01-19T14:49:41.988Z,86.80
2023-01-19T14:54:46.328Z,86.85
2023-01-19T14:59:49.761Z,86.57
2023-01-19T15:04:55.310Z,86.76
2023-01-19T15:09:59.815Z,86.58
2023-01-19T15:15:02.256Z,86.78
2023-01-19T15:20:04.087Z,86.71
2023-01-19T15:25:06.331Z,86.72
2023-01-19T15:30:27.780Z,86.98
2023-01-19T15:35:29.421Z,87.00
2023-01-19T15:40:31.784Z,87.05
2023-01-19T15:45:37.679Z,87.26
2023-01-19T15:50:42.338Z,87.25
2023-01-19T15:55:44.883Z,86.96
2023-01-19T16:00:54.394Z,87.47
2023-01-19T16:05:59.745Z,87.69
2023-01-19T16:11:09.002Z,87.88
2023-01-19T16:16:19.608Z,87.72
2023-01-19T16:21:21.280Z,87.81
2023-01-19T16:26:25.828Z,87.98
2023-01-19T16:31:28.889Z,87.99
2023-01-19T16:36:35.166Z,88.45
2023-01-19T16:41:37.117Z,88.26
2023-01-19T16:46:40.987Z,88.44
2023-01-19T16:51:43.194Z,88.50
2023-01-19T16:56:45.628Z,88.69
2023-01-19T17:01:48.109Z,88.99
2023-01-19T17:06:52.993Z,88.46
2023-01-19T17:11:55.067Z,88.77
2023-01-19T17:16:56.674Z,88.86
2023-01-19T17:21:58.189Z,89.07
2023-01-19T17:27:00.107Z,89.26
2023-01-19T17:32:01.666Z,89.14
2023-01-19T17:37:03.662Z,89.53
2023-01-19T17:42:05.202Z,89.60
2023-01-19T17:47:06.718Z,89.59
2023-01-19T17:52:08.248Z,89.61
2023-01-19T17:57:10.026Z,90.26
2023-01-19T18:02:11.941Z,90.31
2023-01-19T18:07:13.617Z,90.10
2023-01-19T18:12:16.108Z,89.77
2023-01-19T18:17:18.599Z,89.86
2023-01-19T18:22:20.214Z,90.17
2023-01-19T18:27:22.421Z,90.56
2023-01-19T18:32:25.781Z,90.62
2023-01-19T18:37:28.745Z,90.63
2023-01-19T18:42:30.537Z,91.27
2023-01-19T18:47:33.661Z,90.67
2023-01-19T18:52:35.236Z,90.49
2023-01-19T18:57:36.904Z,90.73
2023-01-19T19:02:40.012Z,90.75
2023-01-19T19:07:41.738Z,91.29
2023-01-19T19:12:43.613Z,91.12
2023-01-19T19:17:45.531Z,90.97
2023-01-19T19:22:47.498Z,91.43
2023-01-19T19:27:52.691Z,91.61
2023-01-19T19:32:56.268Z,91.32
2023-01-19T19:37:58.559Z,91.19
2023-01-19T19:43:00.134Z,91.40
2023-01-19T19:48:02.830Z,90.88
2023-01-19T19:53:04.338Z,90.95
2023-01-19T19:58:05.878Z,90.72
2023-01-19T20:03:13.435Z,91.07
2023-01-19T20:08:15.018Z,91.28
2023-01-19T20:13:19.335Z,90.82
2023-01-19T20:18:20.969Z,90.65
2023-01-19T20:23:22.570Z,90.79
2023-01-19T20:28:25.113Z,90.72
2023-01-19T20:33:26.596Z,90.88
2023-01-19T20:38:28.178Z,90.82
2023-01-19T20:43:31.173Z,90.88
2023-01-19T20:48:32.834Z,91.28
2023-01-19T20:53:35.270Z,91.11
2023-01-19T20:58:38.059Z,91.05
2023-01-19T21:03:40.131Z,90.86
2023-01-19T21:08:43.008Z,90.93
2023-01-19T21:13:44.838Z,91.05
2023-01-19T21:18:46.337Z,90.52
2023-01-19T21:23:48.255Z,89.83
2023-01-19T21:28:50.663Z,89.35
2023-01-19T21:33:53.945Z,89.37
2023-01-19T21:39:00.220Z,89.30
2023-01-19T21:44:02.619Z,89.23
2023-01-19T21:49:06.634Z,88.91
2023-01-19T21:54:08.318Z,89.13
2023-01-19T21:59:15.450Z,89.07
2023-01-19T22:04:16.987Z,88.89
2023-01-19T22:09:18.510Z,89.04
2023-01-19T22:14:20.009Z,89.59
2023-01-19T22:19:21.652Z,89.75
2023-01-19T22:24:23.433Z,90.47
2023-01-19T22:29:24.940Z,89.96
2023-01-19T22:34:26.484Z,89.68
2023-01-19T22:39:28.521Z,89.74
2023-01-19T22:44:30.594Z,89.64
2023-01-19T22:49:32.204Z,89.53
2023-01-19T22:54:33.878Z,89.52
2023-01-19T22:59:35.475Z,89.50
2023-01-19T23:04:37.206Z,89.59
2023-01-19T23:09:38.765Z,89.63
2023-01-19T23:14:40.434Z,89.56
2023-01-19T23:19:42.039Z,89.66
2023-01-19T23:24:43.516Z,89.60
2023-01-19T23:29:45.184Z,89.68
2023-01-19T23:34:48.545Z,89.86
2023-01-19T23:39:50.048Z,89.83
2023-01-19T23:44:52.101Z,89.74
2023-01-19T23:49:54.192Z,89.79
2023-01-19T23:54:56.303Z,89.73
2023-01-19T23:59:57.797Z,89.65
